Time;durP1;ratioP1;P1;durP2;ratioP2;P2;SDS_P1;SDS_P2;PMS_P1;PMS_P2;Temp;Humidity;BMP_temperature;BMP_pressure;BME280_temperature;BME280_humidity;BME280_pressure;Samples;Min_cycle;Max_cycle;Signal;HPM_P1;HPM_P2
2022/12/02 00:02:45;;;;;;;38.25;25.12;;;;;;;1.57;73.61;101330.84;2145979;82;27677;-67
2022/12/02 00:05:53;;;;;;;36.42;23.73;;;;;;;1.55;73.60;101333.91;2133637;83;28633;-67
2022/12/02 00:09:00;;;;;;;33.13;20.65;;;;;;;1.57;73.53;101341.41;2133403;83;31098;-68
2022/12/02 00:12:24;;;;;;;35.80;21.40;;;;;;;1.49;72.98;101337.86;2145026;82;32970;-67
2022/12/02 00:15:45;;;;;;;33.13;22.25;;;;;;;1.44;73.22;101331.21;2147563;82;29410;-66
2022/12/02 00:18:46;;;;;;;35.20;24.10;;;;;;;1.43;73.41;101337.36;2172339;82;27747;-66
2022/12/02 00:21:49;;;;;;;38.15;24.75;;;;;;;1.43;73.52;101343.97;2138030;82;28737;-67
2022/12/02 00:24:50;;;;;;;34.48;22.93;;;;;;;1.39;73.46;101333.39;2135200;83;31036;-67
2022/12/02 00:27:51;;;;;;;38.98;26.00;;;;;;;1.38;73.51;101332.94;2134851;83;33937;-66
2022/12/02 00:30:52;;;;;;;37.60;24.18;;;;;;;1.36;73.70;101333.81;2135300;83;29360;-68
2022/12/02 00:33:55;;;;;;;39.53;24.57;;;;;;;1.39;73.66;101325.47;2166906;82;28262;-68
2022/12/02 00:36:57;;;;;;;38.45;25.27;;;;;;;1.40;73.67;101325.91;2170210;82;28066;-67
2022/12/02 00:39:58;;;;;;;41.50;26.37;;;;;;;1.40;73.74;101328.55;2170204;82;31043;-68
2022/12/02 00:46:31;;;;;;;41.92;27.62;;;;;;;1.41;73.83;101332.51;2170025;81;30228;-65
2022/12/02 00:49:33;;;;;;;38.08;24.67;;;;;;;1.44;73.87;101322.42;2172075;81;27656;-65
2022/12/02 00:52:34;;;;;;;42.27;27.27;;;;;;;1.47;73.87;101321.13;2172163;81;28643;-68
2022/12/02 00:55:35;;;;;;;41.58;27.05;;;;;;;1.46;73.87;101322.86;2172065;81;31009;-67
2022/12/02 00:58:36;;;;;;;39.73;27.00;;;;;;;1.45;73.84;101329.47;2123736;82;33008;-67
2022/12/02 01:01:39;;;;;;;40.52;25.95;;;;;;;1.44;73.93;101334.30;2121030;83;29405;-68
2022/12/02 01:04:41;;;;;;;43.38;26.00;;;;;;;1.41;73.90;101330.33;2103188;83;27793;-67
2022/12/02 01:07:42;;;;;;;37.75;22.40;;;;;;;1.37;73.98;101329.44;2121052;82;29433;-67
2022/12/02 01:10:43;;;;;;;42.38;24.77;;;;;;;1.34;73.89;101328.09;2120874;83;31999;-67
2022/12/02 01:13:45;;;;;;;32.13;20.52;;;;;;;1.32;73.98;101324.14;2120803;83;33725;-67
2022/12/02 01:16:46;;;;;;;33.88;21.48;;;;;;;1.29;73.71;101321.48;2132450;82;29949;-68
2022/12/02 01:19:48;;;;;;;32.78;21.15;;;;;;;1.29;73.82;101319.26;2159638;82;27735;-68
2022/12/02 01:22:49;;;;;;;33.00;20.17;;;;;;;1.28;73.88;101311.80;2159535;82;29446;-68
2022/12/02 01:25:50;;;;;;;30.32;19.50;;;;;;;1.28;73.85;101317.48;2159790;82;30976;-67
2022/12/02 01:28:52;;;;;;;32.93;19.67;;;;;;;1.26;73.80;101316.17;2163789;82;33683;-68
2022/12/02 01:31:54;;;;;;;32.05;21.02;;;;;;;1.25;73.74;101315.73;2159779;82;29486;-67
2022/12/02 01:34:56;;;;;;;29.98;20.02;;;;;;;1.26;73.82;101317.91;2159816;82;27754;-68
2022/12/02 01:37:57;;;;;;;32.38;19.62;;;;;;;1.26;73.83;101312.22;2159448;82;28626;-68
2022/12/02 01:40:59;;;;;;;32.78;19.40;;;;;;;1.28;73.89;101310.47;2159838;82;31121;-68
2022/12/02 01:44:01;;;;;;;27.95;17.55;;;;;;;1.30;73.90;101311.36;2159607;82;33714;-68
2022/12/02 01:47:02;;;;;;;36.55;18.85;;;;;;;1.29;73.74;101316.20;2159390;82;29316;-68
2022/12/02 01:50:06;;;;;;;28.90;18.77;;;;;;;1.26;73.77;101313.53;2159937;82;27645;-66
2022/12/02 01:53:08;;;;;;;31.93;19.27;;;;;;;1.23;73.81;101307.37;2132180;82;28780;-67
2022/12/02 01:56:10;;;;;;;26.30;17.52;;;;;;;1.23;73.91;101306.05;2126949;83;30996;-67
2022/12/02 01:59:13;;;;;;;32.63;21.85;;;;;;;1.19;73.92;101308.66;2112078;84;33730;-66
2022/12/02 02:02:27;;;;;;;35.40;21.62;;;;;;;1.19;74.05;101307.34;2111884;82;30158;-67
2022/12/02 02:05:31;;;;;;;29.27;18.57;;;;;;;1.20;74.02;101309.53;2111830;84;28212;-67
2022/12/02 02:08:32;;;;;;;35.45;23.15;;;;;;;1.19;73.97;101298.11;2111679;84;28654;-66
2022/12/02 02:11:34;;;;;;;28.65;19.67;;;;;;;1.20;74.05;101301.61;2120052;82;31057;-67
2022/12/02 02:14:36;;;;;;;30.32;19.20;;;;;;;1.20;74.10;101295.91;2149712;82;32954;-69
2022/12/02 02:17:38;;;;;;;31.75;20.10;;;;;;;1.23;74.07;101300.31;2126930;82;29315;-68
2022/12/02 02:20:40;;;;;;;31.75;20.15;;;;;;;1.22;74.06;101299.88;2150032;82;27669;-69
2022/12/02 02:23:41;;;;;;;32.03;20.95;;;;;;;1.24;74.07;101305.17;2149842;82;28801;-68
2022/12/02 02:26:43;;;;;;;32.08;19.98;;;;;;;1.20;74.08;101301.19;2149480;82;31054;-68
2022/12/02 02:29:45;;;;;;;37.28;22.25;;;;;;;1.20;74.16;101299.88;2149568;82;33109;-68
2022/12/02 02:32:47;;;;;;;35.45;22.27;;;;;;;1.21;74.31;101301.64;2149917;82;29541;-69
2022/12/02 02:35:49;;;;;;;36.15;22.00;;;;;;;1.25;74.38;101300.31;2149877;82;28269;-68
2022/12/02 02:38:51;;;;;;;37.33;24.80;;;;;;;1.23;74.26;101302.09;2149810;82;28644;-68
2022/12/02 02:41:53;;;;;;;31.85;21.55;;;;;;;1.24;74.35;101311.32;2152571;81;31084;-68
2022/12/02 02:44:55;;;;;;;34.40;21.40;;;;;;;1.23;74.20;101308.69;2114055;84;32966;-68
2022/12/02 02:47:57;;;;;;;34.67;20.62;;;;;;;1.20;74.20;101304.25;2152414;82;29315;-68
2022/12/02 02:50:58;;;;;;;37.83;23.25;;;;;;;1.16;74.13;101303.36;2152564;82;28282;-68
2022/12/02 02:54:01;;;;;;;37.05;22.50;;;;;;;1.12;74.16;101302.03;2103891;82;27684;-68
2022/12/02 02:57:02;;;;;;;41.98;24.45;;;;;;;1.13;74.22;101313.03;2152352;82;31626;-69
2022/12/02 03:00:06;;;;;;;46.68;28.90;;;;;;;1.13;74.27;101307.75;2152453;82;33011;-68
2022/12/02 03:03:07;;;;;;;37.25;23.40;;;;;;;1.16;74.38;101311.73;2152146;82;30093;-69
2022/12/02 03:06:10;;;;;;;38.17;23.42;;;;;;;1.14;74.32;101302.47;2124350;82;27721;-67
2022/12/02 03:09:14;;;;;;;38.65;23.20;;;;;;;1.12;74.34;101302.89;2133376;83;29291;-66
2022/12/02 03:12:17;;;;;;;35.30;22.00;;;;;;;1.11;74.28;101298.48;2117317;82;31282;-67
2022/12/02 03:15:21;;;;;;;36.65;23.42;;;;;;;1.09;74.31;101298.91;2136434;82;33014;-67
2022/12/02 03:18:22;;;;;;;37.33;23.27;;;;;;;1.03;74.31;101287.89;2149907;82;33406;-68
2022/12/02 03:21:24;;;;;;;35.98;23.65;;;;;;;1.03;74.36;101290.53;2149979;82;27538;-67
2022/12/02 03:24:26;;;;;;;38.13;23.62;;;;;;;1.02;74.40;101290.08;2149542;82;29459;-68
2022/12/02 03:27:28;;;;;;;38.15;22.52;;;;;;;1.04;74.45;101285.70;2149426;82;32098;-68
2022/12/02 03:30:29;;;;;;;31.68;20.72;;;;;;;1.04;74.30;101283.52;2149690;82;33750;-67
2022/12/02 03:33:31;;;;;;;25.77;16.15;;;;;;;1.01;74.26;101282.17;2149882;82;29317;-68
2022/12/02 03:36:34;;;;;;;35.35;21.12;;;;;;;0.99;74.29;101279.95;2103495;82;27725;-69
2022/12/02 03:39:36;;;;;;;36.40;21.68;;;;;;;0.97;74.29;101276.42;2152499;82;28056;-68
2022/12/02 03:42:38;;;;;;;35.52;21.12;;;;;;;0.94;74.33;101272.44;2113911;84;30407;-68
2022/12/02 03:45:42;;;;;;;31.75;20.48;;;;;;;0.92;74.38;101271.13;2171580;82;32978;-68
2022/12/02 03:48:45;;;;;;;34.90;20.45;;;;;;;0.85;74.27;101264.03;2152387;82;29336;-68
2022/12/02 03:51:46;;;;;;;37.45;21.95;;;;;;;0.78;74.32;101260.93;2114107;84;27530;-67
2022/12/02 03:54:48;;;;;;;33.38;20.72;;;;;;;0.78;74.44;101256.97;2171853;82;28675;-69
2022/12/02 03:57:49;;;;;;;31.12;18.98;;;;;;;0.77;74.49;101260.48;2149625;82;31198;-68
2022/12/02 04:00:51;;;;;;;32.70;18.52;;;;;;;0.77;74.44;101256.52;2114201;84;33975;-68
2022/12/02 04:03:52;;;;;;;28.30;18.92;;;;;;;0.77;74.49;101253.89;2171737;82;29315;-68
2022/12/02 04:06:53;;;;;;;30.82;19.65;;;;;;;0.77;74.47;101256.07;2150123;82;27605;-68
2022/12/02 04:09:54;;;;;;;35.30;21.07;;;;;;;0.78;74.47;101249.92;2150065;82;29347;-68
2022/12/02 04:12:55;;;;;;;32.17;21.02;;;;;;;0.79;74.56;101254.33;2146473;82;31003;-69
2022/12/02 04:15:57;;;;;;;33.10;18.87;;;;;;;0.80;74.58;101253.46;2111737;84;32955;-67
2022/12/02 04:18:58;;;;;;;26.90;16.90;;;;;;;0.83;74.56;101253.48;2111762;84;29336;-68
2022/12/02 04:21:59;;;;;;;26.90;16.75;;;;;;;0.83;74.36;101249.98;2112023;82;27692;-68
2022/12/02 04:25:02;;;;;;;29.12;18.00;;;;;;;0.83;74.34;101244.70;2111814;84;28648;-68
2022/12/02 04:28:04;;;;;;;30.02;18.87;;;;;;;0.83;74.41;101240.30;2111764;84;31042;-69
2022/12/02 04:31:05;;;;;;;34.35;21.10;;;;;;;0.86;74.46;101245.59;2111742;84;33735;-69
2022/12/02 04:34:06;;;;;;;31.35;17.82;;;;;;;0.86;74.44;101252.61;2111977;82;29303;-68
2022/12/02 04:37:08;;;;;;;46.60;24.25;;;;;;;0.85;74.33;101242.93;2111828;84;27854;-67
2022/12/02 04:40:10;;;;;;;47.85;22.90;;;;;;;0.84;74.44;101239.84;2111631;84;28653;-66
2022/12/02 04:43:12;;;;;;;39.85;23.12;;;;;;;0.84;74.45;101242.06;2128933;82;31092;-65
2022/12/02 04:46:13;;;;;;;35.95;21.68;;;;;;;0.85;74.43;101240.30;2147936;82;33801;-67
2022/12/02 04:49:15;;;;;;;46.65;25.15;;;;;;;0.85;74.45;101238.55;2147973;82;29493;-66
2022/12/02 04:52:16;;;;;;;60.45;28.32;;;;;;;0.85;74.39;101243.83;2147990;82;27704;-67
2022/12/02 04:55:17;;;;;;;35.58;20.45;;;;;;;0.83;74.37;101236.80;2147946;82;29499;-67
2022/12/02 04:58:18;;;;;;;51.77;26.68;;;;;;;0.78;74.29;101234.10;2147653;82;31075;-67
2022/12/02 05:01:19;;;;;;;45.35;25.35;;;;;;;0.75;74.29;101238.03;2147901;82;32435;-68
2022/12/02 05:04:20;;;;;;;41.18;23.52;;;;;;;0.72;74.35;101234.09;2117826;82;29320;-67
2022/12/02 05:07:22;;;;;;;90.05;41.88;;;;;;;0.71;74.39;101238.46;2111840;84;27797;-67
2022/12/02 05:10:23;;;;;;;68.50;33.20;;;;;;;0.73;74.48;101238.04;2111270;84;28710;-67
2022/12/02 05:13:24;;;;;;;97.60;43.13;;;;;;;0.74;74.40;101239.80;2129459;82;31015;-67
2022/12/02 05:16:25;;;;;;;40.38;25.05;;;;;;;0.71;74.35;101242.42;2149792;82;32956;-67
2022/12/02 05:19:27;;;;;;;31.10;19.05;;;;;;;0.68;74.27;101237.12;2149986;82;29322;-67
2022/12/02 05:22:28;;;;;;;29.95;17.02;;;;;;;0.67;74.36;101238.44;2149654;82;27730;-67
2022/12/02 05:25:29;;;;;;;30.20;17.40;;;;;;;0.66;74.32;101239.31;2149935;82;29466;-67
2022/12/02 05:28:30;;;;;;;30.32;19.55;;;;;;;0.64;74.33;101239.31;2149969;82;30971;-66
2022/12/02 05:31:31;;;;;;;31.45;19.45;;;;;;;0.63;74.40;101237.97;2150539;82;32457;-66
2022/12/02 05:34:33;;;;;;;32.03;19.48;;;;;;;0.63;74.42;101244.14;2152417;82;29314;-66
2022/12/02 05:37:34;;;;;;;33.53;18.40;;;;;;;0.61;74.46;101241.92;2152563;82;27750;-66
2022/12/02 05:40:35;;;;;;;30.77;18.45;;;;;;;0.59;74.39;101235.75;2171867;82;28634;-66
2022/12/02 05:43:40;;;;;;;32.80;18.23;;;;;;;0.57;74.36;101238.81;2102947;84;31019;-67
2022/12/02 05:46:41;;;;;;;29.75;17.98;;;;;;;0.57;74.45;101242.34;2108969;84;32993;-66
2022/12/02 05:49:45;;;;;;;31.70;19.12;;;;;;;0.60;74.49;101244.98;2152590;82;30142;-66
2022/12/02 05:52:48;;;;;;;34.50;19.62;;;;;;;0.62;74.45;101247.64;2152261;82;27691;-66
2022/12/02 05:55:52;;;;;;;55.60;35.88;;;;;;;0.64;74.50;101245.00;2152566;82;28086;-65
2022/12/02 05:59:01;;;;;;;38.67;22.25;;;;;;;0.66;74.55;101243.27;2153058;82;31841;-66
2022/12/02 06:02:06;;;;;;;36.98;22.55;;;;;;;0.66;74.58;101258.67;2150545;82;33236;-66
2022/12/02 06:05:24;;;;;;;37.00;22.10;;;;;;;0.68;74.63;101252.94;2150457;82;29331;-65
2022/12/02 06:08:32;;;;;;;36.08;19.90;;;;;;;0.67;74.63;101252.49;2150594;82;27627;-66
2022/12/02 06:11:35;;;;;;;36.68;22.73;;;;;;;0.67;74.54;101255.58;2101098;84;28687;-65
2022/12/02 06:14:36;;;;;;;44.35;24.57;;;;;;;0.64;74.48;101260.41;2112836;83;31216;-66
2022/12/02 06:17:38;;;;;;;33.58;19.65;;;;;;;0.63;74.54;101255.11;2106338;84;32946;-65
2022/12/02 06:20:40;;;;;;;35.00;20.97;;;;;;;0.63;74.44;101263.91;2106540;84;29319;-65
2022/12/02 06:23:45;;;;;;;40.00;23.22;;;;;;;0.65;74.41;101263.49;2104729;84;27652;-65
2022/12/02 06:26:50;;;;;;;37.03;21.75;;;;;;;0.67;74.45;101259.53;2117322;84;29464;-65
2022/12/02 06:29:56;;;;;;;41.02;23.40;;;;;;;0.69;74.45;101266.58;2106193;84;30994;-65
2022/12/02 06:32:58;;;;;;;31.25;18.37;;;;;;;0.69;74.24;101266.58;2156925;82;33758;-65
2022/12/02 06:36:07;;;;;;;35.78;20.82;;;;;;;0.65;73.99;101267.87;2159679;82;30260;-65
2022/12/02 06:39:22;;;;;;;34.73;20.17;;;;;;;0.63;74.24;101273.14;2094932;83;27650;-65
2022/12/02 06:42:37;;;;;;;;;;;;;;;0.63;74.26;101270.51;2146717;83;28656;-64
2022/12/02 06:45:38;;;;;;;53.87;31.27;;;;;;;0.64;74.17;101274.02;2159807;82;31018;-64
2022/12/02 06:48:40;;;;;;;39.92;21.80;;;;;;;0.62;74.27;101273.11;2159777;82;33212;-64
2022/12/02 06:51:41;;;;;;;37.83;20.10;;;;;;;0.63;74.22;101279.73;2159789;82;29932;-65
2022/12/02 06:54:45;;;;;;;54.90;29.07;;;;;;;0.63;74.08;101277.52;2136566;82;27707;-65
2022/12/02 06:57:46;;;;;;;42.05;24.65;;;;;;;0.58;73.93;101283.63;2147572;81;29538;-65
2022/12/02 07:00:48;;;;;;;49.15;27.90;;;;;;;0.57;74.15;101291.55;2172342;81;31116;-64
2022/12/02 07:03:57;;;;;;;45.75;23.12;;;;;;;0.58;74.27;101288.91;2144474;82;33160;-65
2022/12/02 07:07:05;;;;;;;41.65;21.35;;;;;;;0.60;74.33;101296.84;2023440;87;28815;-65
2022/12/02 07:10:12;;;;;;;36.17;22.85;;;;;;;0.63;74.32;101294.66;2023140;87;27757;-65
2022/12/02 07:13:16;;;;;;;44.13;24.00;;;;;;;0.65;74.30;101288.55;2024110;86;29476;-65
2022/12/02 07:16:35;;;;;;;51.42;28.45;;;;;;;0.66;74.36;101287.67;2023551;88;30969;-64
2022/12/02 07:19:41;;;;;;;59.13;33.35;;;;;;;0.72;74.32;101298.70;2002221;87;33745;-66
2022/12/02 07:22:56;;;;;;;41.13;23.75;;;;;;;0.70;74.18;101290.75;2024140;86;30127;-66
2022/12/02 07:25:59;;;;;;;36.93;20.37;;;;;;;0.66;74.06;101295.59;2023702;86;27847;-65
2022/12/02 07:29:01;;;;;;;37.30;22.40;;;;;;;0.65;73.88;101279.73;2023918;87;29808;-66
2022/12/02 07:32:02;;;;;;;34.38;19.77;;;;;;;0.60;73.90;101284.53;2023944;87;31024;-66
2022/12/02 07:35:05;;;;;;;37.33;20.77;;;;;;;0.59;74.01;101289.80;2056210;86;32934;-66
2022/12/02 07:38:06;;;;;;;38.80;22.17;;;;;;;0.62;74.13;101291.57;2059190;86;29321;-67
2022/12/02 07:41:07;;;;;;;138.95;71.57;;;;;;;0.63;74.10;101290.28;2059278;86;27672;-66
2022/12/02 07:44:09;;;;;;;45.63;26.37;;;;;;;0.65;74.12;101291.60;2110312;82;29448;-67
2022/12/02 07:47:10;;;;;;;51.10;32.53;;;;;;;0.63;74.01;101285.02;2159874;82;31006;-66
2022/12/02 07:50:14;;;;;;;39.48;21.33;;;;;;;0.64;74.12;101283.23;2159992;82;32978;-66
2022/12/02 07:53:16;;;;;;;58.73;36.60;;;;;;;0.65;74.02;101280.63;2159784;82;30111;-67
2022/12/02 07:56:18;;;;;;;46.10;27.37;;;;;;;0.64;73.96;101286.78;2159998;82;27668;-66
2022/12/02 07:59:19;;;;;;;38.92;21.97;;;;;;;0.65;74.08;101285.00;2159658;82;29406;-66
2022/12/02 08:02:21;;;;;;;34.95;18.70;;;;;;;0.68;74.13;101292.50;2160007;82;31872;-65
2022/12/02 08:05:23;;;;;;;33.15;19.17;;;;;;;0.68;73.88;101288.99;2096460;84;32976;-66
2022/12/02 08:08:24;;;;;;;39.55;22.02;;;;;;;0.67;73.96;101293.36;2096458;84;30107;-66
2022/12/02 08:11:25;;;;;;;38.85;22.50;;;;;;;0.69;74.14;101285.03;2096421;84;27848;-65
2022/12/02 08:14:27;;;;;;;47.48;25.35;;;;;;;0.72;74.30;101292.97;2139608;82;29515;-65
2022/12/02 08:17:28;;;;;;;39.53;23.02;;;;;;;0.79;74.39;101283.80;2159951;82;31020;-66
2022/12/02 08:20:30;;;;;;;41.33;22.02;;;;;;;0.83;74.37;101283.82;2159910;82;32949;-66
2022/12/02 08:23:32;;;;;;;42.53;25.55;;;;;;;0.89;74.25;101288.25;2150564;82;30134;-66
2022/12/02 08:26:33;;;;;;;45.65;26.02;;;;;;;0.88;74.24;101282.52;2159927;82;27654;-66
2022/12/02 08:29:34;;;;;;;45.50;26.12;;;;;;;0.92;74.35;101293.55;2159997;82;29399;-67
2022/12/02 08:32:36;;;;;;;44.13;24.82;;;;;;;0.94;74.32;101288.27;2159765;82;31016;-67
2022/12/02 08:35:38;;;;;;;42.15;22.77;;;;;;;0.96;74.22;101288.74;2159897;82;33107;-67
2022/12/02 08:38:39;;;;;;;35.52;20.27;;;;;;;0.93;73.98;101291.78;2159864;82;29406;-66
2022/12/02 08:41:41;;;;;;;41.25;23.15;;;;;;;0.85;73.98;101291.31;2159958;82;27638;-64
2022/12/02 08:44:42;;;;;;;41.15;24.92;;;;;;;0.81;74.03;101288.65;2159753;82;29430;-66
2022/12/02 08:47:43;;;;;;;54.45;28.45;;;;;;;0.77;74.06;101287.72;2159960;82;31017;-67
2022/12/02 08:50:45;;;;;;;58.55;33.25;;;;;;;0.73;74.09;101285.51;2159833;82;33170;-66
2022/12/02 08:53:46;;;;;;;52.48;27.32;;;;;;;0.71;74.17;101285.93;2159855;82;29304;-66
2022/12/02 08:56:48;;;;;;;46.33;25.95;;;;;;;0.69;74.08;101290.76;2159931;82;27645;-67
2022/12/02 08:59:49;;;;;;;51.42;29.70;;;;;;;0.68;74.13;101286.36;2170327;82;28661;-67
2022/12/02 09:02:50;;;;;;;37.50;22.42;;;;;;;0.65;73.99;101285.00;2172148;82;31872;-67
2022/12/02 09:05:52;;;;;;;35.40;20.60;;;;;;;0.66;74.03;101286.36;2172449;82;33685;-66
2022/12/02 09:08:53;;;;;;;32.83;20.43;;;;;;;0.70;74.03;101285.94;2172365;82;29327;-67
2022/12/02 09:11:55;;;;;;;40.20;22.60;;;;;;;0.72;73.90;101285.06;2165736;81;27587;-67
2022/12/02 09:14:56;;;;;;;35.92;20.97;;;;;;;0.72;73.50;101286.83;2172311;82;28706;-66
2022/12/02 09:17:58;;;;;;;39.33;20.68;;;;;;;0.71;73.41;101285.93;2172267;82;31255;-66
2022/12/02 09:20:59;;;;;;;25.02;15.85;;;;;;;0.70;73.06;101288.57;2172138;82;32950;-65
2022/12/02 09:24:01;;;;;;;29.45;16.85;;;;;;;0.68;73.02;101286.36;2172502;82;29313;-65
2022/12/02 09:27:02;;;;;;;28.65;17.00;;;;;;;0.68;73.19;101288.55;2172411;82;27652;-64
2022/12/02 09:30:06;;;;;;;26.80;16.70;;;;;;;0.71;73.12;101284.61;2172406;82;28619;-65
2022/12/02 09:33:07;;;;;;;29.45;16.87;;;;;;;0.73;73.16;101281.55;2172146;82;31239;-65
2022/12/02 09:36:08;;;;;;;26.37;16.62;;;;;;;0.73;73.13;101280.23;2172284;82;32938;-66
2022/12/02 09:39:09;;;;;;;30.85;17.62;;;;;;;0.77;73.16;101285.54;2172308;82;30078;-65
2022/12/02 09:42:15;;;;;;;31.80;19.05;;;;;;;0.79;73.07;101287.75;2172139;82;27646;-66
2022/12/02 09:45:17;;;;;;;27.45;16.60;;;;;;;0.78;73.13;101284.22;2172255;82;29506;-66
2022/12/02 09:48:18;;;;;;;33.00;19.62;;;;;;;0.81;72.85;101288.20;2172275;82;32156;-65
2022/12/02 09:51:19;;;;;;;29.70;17.50;;;;;;;0.80;73.12;101285.56;2168410;81;32971;-65
2022/12/02 09:54:27;;;;;;;27.10;16.75;;;;;;;0.83;72.93;101285.59;2172492;82;29325;-66
2022/12/02 09:57:31;;;;;;;31.45;18.98;;;;;;;0.80;72.92;101278.97;2172481;81;27224;-66
2022/12/02 10:00:32;;;;;;;32.17;18.12;;;;;;;0.83;73.12;101285.59;2174722;81;28681;-65
2022/12/02 10:03:34;;;;;;;31.65;19.75;;;;;;;0.87;73.14;101283.39;2138953;82;31153;-66
2022/12/02 10:06:35;;;;;;;30.48;18.50;;;;;;;0.90;73.15;101274.19;2111762;84;33101;-66
2022/12/02 10:09:36;;;;;;;31.30;19.67;;;;;;;0.88;72.87;101277.25;2112003;84;29327;-66
2022/12/02 10:12:38;;;;;;;32.93;19.98;;;;;;;0.90;73.08;101276.82;2111754;84;27758;-64
2022/12/02 10:15:40;;;;;;;33.38;20.40;;;;;;;0.95;73.14;101271.56;2146306;82;28741;-67
2022/12/02 10:18:41;;;;;;;32.65;19.57;;;;;;;0.96;72.89;101275.55;2149958;82;31040;-66
2022/12/02 10:21:43;;;;;;;32.13;19.92;;;;;;;0.98;73.03;101267.63;2149890;82;32979;-68
2022/12/02 10:24:45;;;;;;;36.77;21.57;;;;;;;0.94;72.81;101270.70;2175107;81;29307;-66
2022/12/02 10:27:46;;;;;;;38.63;21.60;;;;;;;0.95;73.04;101269.83;2174947;81;27622;-66
2022/12/02 10:30:52;;;;;;;35.88;22.00;;;;;;;0.99;73.01;101265.44;2174707;80;28629;-65
2022/12/02 10:33:58;;;;;;;36.58;20.72;;;;;;;0.97;72.91;101267.19;2133842;83;31857;-65
2022/12/02 10:37:24;;;;;;;36.15;20.88;;;;;;;0.97;72.97;101264.13;2148011;82;33945;-65
2022/12/02 10:40:25;;;;;;;38.65;21.85;;;;;;;0.97;72.83;101263.23;2174842;81;29383;-66
2022/12/02 10:43:27;;;;;;;42.10;23.98;;;;;;;0.91;72.82;101262.77;2174345;81;27600;-66
2022/12/02 10:46:28;;;;;;;41.37;30.32;;;;;;;0.86;72.92;101260.52;2174867;81;28632;-65
2022/12/02 10:49:35;;;;;;;37.13;21.40;;;;;;;0.83;73.02;101260.53;2174948;81;31842;-65
2022/12/02 10:52:42;;;;;;;35.35;19.92;;;;;;;0.80;73.00;101260.51;2113533;84;33015;-66
2022/12/02 10:55:45;;;;;;;45.25;24.20;;;;;;;0.75;73.02;101254.76;2148892;82;29347;-66
2022/12/02 10:58:49;;;;;;;33.42;19.77;;;;;;;0.74;73.10;101258.72;2170502;81;27726;-66
2022/12/02 11:01:50;;;;;;;43.28;24.10;;;;;;;0.71;73.12;101254.73;2155155;81;28671;-65
2022/12/02 11:04:52;;;;;;;44.60;24.00;;;;;;;0.67;73.18;101248.98;2105977;84;31050;-65
2022/12/02 11:08:06;;;;;;;50.45;27.20;;;;;;;0.65;73.26;101259.95;2131937;83;32985;-66
2022/12/02 11:11:25;;;;;;;67.82;33.75;;;;;;;0.68;73.39;101250.75;2106692;84;29393;-66
2022/12/02 11:14:50;;;;;;;46.68;27.00;;;;;;;0.68;73.37;101256.03;2106730;84;27726;-66
2022/12/02 11:17:52;;;;;;;40.92;21.20;;;;;;;0.68;73.36;101258.66;2106826;84;28662;-65
2022/12/02 11:21:02;;;;;;;38.45;22.45;;;;;;;0.66;73.26;101252.08;2106465;84;31100;-66
2022/12/02 11:24:27;;;;;;;36.03;21.65;;;;;;;0.64;73.27;101255.13;2106077;83;33765;-66
2022/12/02 11:27:28;;;;;;;49.83;26.48;;;;;;;0.62;73.35;101251.60;2106961;84;29421;-65
2022/12/02 11:30:37;;;;;;;40.45;22.42;;;;;;;0.63;73.42;101249.83;2094138;84;28221;-66
2022/12/02 11:34:00;;;;;;;43.00;22.70;;;;;;;0.65;73.39;101245.45;2132006;83;29600;-67
2022/12/02 11:37:32;;;;;;;40.45;23.27;;;;;;;0.66;73.38;101245.48;2131208;83;31259;-67
2022/12/02 11:40:39;;;;;;;48.00;27.37;;;;;;;0.68;73.42;101245.48;2085297;84;32992;-61
2022/12/02 11:44:01;;;;;;;63.98;34.25;;;;;;;0.71;73.40;101241.55;2077077;84;29341;-61
2022/12/02 11:47:03;;;;;;;47.25;27.25;;;;;;;0.74;73.34;101249.03;2053954;85;27776;-61
2022/12/02 11:50:22;;;;;;;40.45;24.50;;;;;;;0.75;73.15;101241.98;2052836;85;29282;-59
2022/12/02 11:53:24;;;;;;;39.08;21.97;;;;;;;0.75;73.23;101249.48;2056676;85;31101;-60
2022/12/02 11:56:39;;;;;;;37.70;21.68;;;;;;;0.77;73.03;101248.61;2059199;85;32869;-60
2022/12/02 11:59:40;;;;;;;35.88;22.30;;;;;;;0.73;72.94;101245.95;2049093;84;30465;-60
2022/12/02 12:02:42;;;;;;;38.08;22.35;;;;;;;0.73;73.09;101245.08;2095302;84;27833;-60
2022/12/02 12:06:10;;;;;;;40.90;23.27;;;;;;;0.74;72.83;101249.03;2093349;83;29219;-60
2022/12/02 12:09:12;;;;;;;34.80;19.90;;;;;;;0.72;73.01;101240.68;2093909;84;31327;-60
2022/12/02 12:12:18;;;;;;;34.08;20.60;;;;;;;0.70;72.64;101246.38;2092460;83;34238;-63
2022/12/02 12:15:19;;;;;;;42.10;24.02;;;;;;;0.65;72.65;101237.55;2113282;82;29388;-62
2022/12/02 12:18:44;;;;;;;42.45;25.23;;;;;;;0.63;72.74;101244.56;2139672;81;28270;-61
2022/12/02 12:21:52;;;;;;;33.13;19.00;;;;;;;0.64;72.89;101234.45;2139165;82;29916;-61
2022/12/02 12:24:56;;;;;;;37.28;22.05;;;;;;;0.65;73.02;101236.22;2134970;82;31036;-62
2022/12/02 12:27:57;;;;;;;41.73;23.00;;;;;;;0.69;72.99;101232.29;2133862;82;33603;-60
2022/12/02 12:31:01;;;;;;;35.65;20.62;;;;;;;0.71;72.83;101230.55;2169702;80;30414;-62
2022/12/02 12:34:03;;;;;;;41.15;23.22;;;;;;;0.71;72.83;101237.59;2170479;80;27660;-65
2022/12/02 12:37:04;;;;;;;37.38;21.60;;;;;;;0.73;72.79;101239.81;2156113;81;28854;-65
2022/12/02 12:40:07;;;;;;;35.00;20.27;;;;;;;0.69;72.78;101229.66;2076136;85;31872;-64
2022/12/02 12:43:08;;;;;;;40.20;22.20;;;;;;;0.66;72.47;101234.03;2134505;82;33011;-63
2022/12/02 12:46:09;;;;;;;42.60;24.50;;;;;;;0.59;72.68;101226.52;2111542;84;30106;-64
2022/12/02 12:49:10;;;;;;;42.85;26.87;;;;;;;0.53;72.76;101229.11;2114000;83;27662;-64
2022/12/02 12:52:11;;;;;;;43.20;26.93;;;;;;;0.50;72.85;101222.52;2113970;83;29430;-64
2022/12/02 12:55:13;;;;;;;41.53;23.60;;;;;;;0.48;73.06;101221.17;2114293;82;31122;-65
2022/12/02 12:58:15;;;;;;;37.48;22.25;;;;;;;0.49;72.92;101226.89;2114221;84;33510;-63
2022/12/02 13:01:16;;;;;;;46.08;25.85;;;;;;;0.44;72.86;101225.55;2106342;84;28938;-65
2022/12/02 13:04:18;;;;;;;40.52;25.92;;;;;;;0.38;72.99;101221.55;2105913;84;27748;-66
2022/12/02 13:07:19;;;;;;;41.25;27.73;;;;;;;0.37;73.06;101216.27;2105930;84;28624;-64
2022/12/02 13:10:20;;;;;;;39.92;24.25;;;;;;;0.37;73.11;101223.73;2105817;84;30407;-65
2022/12/02 13:13:23;;;;;;;48.40;24.87;;;;;;;0.36;73.16;101223.28;2105708;84;32945;-64
2022/12/02 13:16:25;;;;;;;40.70;24.37;;;;;;;0.33;73.09;101223.28;2085891;84;29334;-66
2022/12/02 13:19:26;;;;;;;44.40;26.02;;;;;;;0.32;73.09;101229.42;2140291;83;27679;-64
2022/12/02 13:22:30;;;;;;;44.90;25.00;;;;;;;0.26;73.07;101231.55;2143889;82;28630;-65
2022/12/02 13:25:32;;;;;;;44.65;25.08;;;;;;;0.26;73.24;101228.91;2143874;83;31834;-65
2022/12/02 13:28:33;;;;;;;45.15;24.90;;;;;;;0.26;73.26;101230.68;2143687;82;32926;-66
2022/12/02 13:31:34;;;;;;;48.17;26.62;;;;;;;0.23;73.20;101239.45;2143670;83;30430;-65
2022/12/02 13:34:36;;;;;;;37.70;23.30;;;;;;;0.17;73.27;101228.85;2134638;82;27714;-64
2022/12/02 13:37:39;;;;;;;40.30;22.35;;;;;;;0.19;73.31;101235.02;2105143;84;27822;-65
2022/12/02 13:40:40;;;;;;;43.30;24.32;;;;;;;0.17;73.28;101230.17;2105872;84;31861;-64
2022/12/02 13:43:41;;;;;;;48.70;25.48;;;;;;;0.12;73.33;101232.77;2105717;84;32949;-64
2022/12/02 13:46:42;;;;;;;49.05;25.95;;;;;;;0.11;73.43;101228.38;2105966;84;30079;-65
2022/12/02 13:49:44;;;;;;;46.02;24.15;;;;;;;0.11;73.49;101234.06;2105966;84;27631;-67
2022/12/02 13:52:46;;;;;;;74.32;36.68;;;;;;;0.11;73.53;101235.38;2105766;84;28661;-67
2022/12/02 13:55:47;;;;;;;52.25;27.65;;;;;;;0.10;73.66;101238.46;2105809;84;31043;-68
2022/12/02 13:58:50;;;;;;;46.83;26.33;;;;;;;0.09;73.59;101238.02;2105643;83;33839;-68
2022/12/02 14:01:51;;;;;;;38.73;21.45;;;;;;;0.07;73.67;101241.06;2097036;84;30101;-66
2022/12/02 14:04:53;;;;;;;40.58;22.10;;;;;;;0.03;73.60;101238.39;2089491;85;27682;-69
2022/12/02 14:07:54;;;;;;;50.90;27.13;;;;;;;-0.01;73.62;101240.99;2089408;85;28648;-68